createdAt,value
2018-06-03T00:01:20.508Z,52.13
2018-06-03T00:03:48.714Z,53.70
2018-06-03T00:06:16.884Z,55.13
2018-06-03T00:08:45.081Z,58.17
2018-06-03T00:11:13.043Z,55.90
2018-06-03T00:13:41.269Z,55.93
2018-06-03T00:16:09.481Z,59.60
2018-06-03T00:18:37.689Z,58.43
2018-06-03T00:21:17.377Z,55.90
2018-06-03T00:23:45.574Z,58.50
2018-06-03T00:26:13.788Z,59.37
2018-06-03T00:28:41.711Z,58.07
2018-06-03T00:31:09.880Z,54.73
2018-06-03T00:33:39.093Z,56.13
2018-06-03T00:37:10.725Z,55.43
2018-06-03T00:39:38.903Z,53.40
2018-06-03T00:42:07.105Z,57.17
2018-06-03T00:44:35.069Z,49.57
2018-06-03T00:47:03.256Z,61.83
2018-06-03T00:49:31.446Z,58.70
2018-06-03T00:51:59.387Z,55.80
2018-06-03T00:54:27.615Z,57.53
2018-06-03T00:57:07.116Z,56.23
2018-06-03T00:59:35.305Z,58.87
2018-06-03T01:02:03.522Z,65.50
2018-06-03T01:04:31.721Z,60.73
2018-06-03T01:06:59.920Z,62.40
2018-06-03T01:09:28.100Z,58.97
2018-06-03T01:11:56.299Z,62.37
2018-06-03T01:14:24.497Z,61.13
2018-06-03T01:16:52.675Z,58.17
2018-06-03T01:19:20.888Z,56.13
2018-06-03T01:21:49.073Z,56.57
2018-06-03T01:24:17.280Z,52.80
2018-06-03T01:26:45.500Z,53.80
2018-06-03T01:29:13.713Z,51.87
2018-06-03T01:31:41.892Z,49.77
2018-06-03T01:34:10.075Z,46.20
2018-06-03T01:36:38.261Z,49.83
2018-06-03T01:39:07.050Z,41.80
2018-06-03T01:41:35.257Z,40.63
2018-06-03T01:44:03.584Z,41.47
2018-06-03T01:46:31.964Z,37.70
2018-06-03T01:49:00.144Z,38.60
2018-06-03T01:51:28.348Z,37.67
2018-06-03T01:53:56.562Z,36.60
2018-06-03T01:56:24.733Z,35.93
2018-06-03T01:58:52.916Z,34.73
2018-06-03T02:01:21.117Z,34.10
2018-06-03T02:03:49.288Z,33.37
2018-06-03T02:06:17.465Z,30.00
2018-06-03T02:08:45.652Z,32.17
2018-06-03T02:11:13.835Z,33.90
2018-06-03T02:13:42.022Z,31.57
2018-06-03T02:16:10.332Z,30.10
2018-06-03T02:18:38.508Z,27.70
2018-06-03T02:21:13.080Z,28.20
2018-06-03T02:23:41.279Z,27.60
2018-06-03T02:26:09.485Z,26.90
2018-06-03T02:28:44.084Z,24.90
2018-06-03T02:31:12.260Z,26.50
2018-06-03T02:33:40.442Z,25.27
2018-06-03T02:36:08.649Z,24.90
2018-06-03T02:38:36.841Z,22.00
2018-06-03T02:41:05.024Z,23.70
2018-06-03T02:43:33.227Z,22.67
2018-06-03T02:46:01.403Z,22.23
2018-06-03T02:48:29.585Z,20.03
2018-06-03T02:50:57.806Z,20.50
2018-06-03T02:53:25.991Z,18.97
2018-06-03T02:55:54.184Z,18.90
2018-06-03T02:58:22.108Z,17.77
2018-06-03T03:00:50.401Z,21.50
2018-06-03T03:03:18.586Z,20.17
2018-06-03T03:05:46.748Z,19.73
2018-06-03T03:08:14.970Z,19.83
2018-06-03T03:10:43.149Z,18.97
2018-06-03T03:13:11.345Z,19.53
2018-06-03T03:15:39.525Z,19.37
2018-06-03T03:18:07.705Z,21.93
2018-06-03T03:20:35.900Z,21.57
2018-06-03T03:23:04.092Z,21.23
2018-06-03T03:25:32.024Z,20.87
2018-06-03T03:28:00.212Z,22.23
2018-06-03T03:30:28.437Z,22.37
2018-06-03T03:32:56.657Z,22.87
2018-06-03T03:35:24.824Z,22.43
2018-06-03T03:37:53.011Z,23.90
2018-06-03T03:40:21.194Z,21.73
2018-06-03T03:42:49.396Z,22.27
2018-06-03T03:45:17.586Z,22.63
2018-06-03T03:47:45.781Z,24.97
2018-06-03T03:50:13.987Z,22.77
2018-06-03T03:52:41.933Z,27.47
2018-06-03T03:55:10.120Z,27.23
2018-06-03T03:57:38.304Z,24.80
2018-06-03T04:00:06.247Z,29.00
2018-06-03T04:02:34.452Z,27.20
2018-06-03T04:05:02.416Z,27.80
2018-06-03T04:07:30.374Z,26.43
2018-06-03T04:09:58.585Z,25.57
2018-06-03T04:12:26.776Z,26.70
2018-06-03T04:14:54.943Z,27.23
2018-06-03T04:17:23.172Z,25.30
2018-06-03T04:19:51.348Z,29.67
2018-06-03T04:22:19.552Z,29.40
2018-06-03T04:24:47.720Z,32.23
2018-06-03T04:27:16.845Z,35.17
2018-06-03T04:29:45.032Z,35.73
2018-06-03T04:32:13.228Z,38.30
2018-06-03T04:34:41.403Z,40.83
2018-06-03T04:37:09.592Z,36.50
2018-06-03T04:39:37.536Z,38.83
2018-06-03T04:42:05.719Z,39.07
2018-06-03T04:44:33.911Z,37.47
2018-06-03T04:47:02.095Z,34.97
2018-06-03T04:49:30.276Z,35.90
2018-06-03T04:51:58.556Z,40.97
2018-06-03T04:54:26.854Z,39.67
2018-06-03T04:56:55.019Z,41.53
2018-06-03T04:59:23.200Z,39.10
2018-06-03T05:01:51.392Z,39.10
2018-06-03T05:04:19.565Z,37.60
2018-06-03T05:06:47.749Z,39.13
2018-06-03T05:09:15.915Z,40.60
2018-06-03T05:11:44.087Z,38.00
2018-06-03T05:14:12.356Z,40.93
2018-06-03T05:16:40.521Z,36.83
2018-06-03T05:19:08.700Z,36.87
2018-06-03T05:21:36.923Z,38.90
2018-06-03T05:24:05.130Z,40.63
2018-06-03T05:26:33.364Z,32.07
2018-06-03T05:29:01.312Z,32.43
2018-06-03T05:31:29.497Z,34.20
2018-06-03T05:33:57.666Z,35.73
2018-06-03T05:36:25.896Z,32.20
2018-06-03T05:38:54.055Z,32.20
2018-06-03T05:41:22.244Z,35.07
2018-06-03T05:43:50.449Z,31.07
2018-06-03T05:46:18.637Z,32.10
2018-06-03T05:48:46.825Z,30.77
2018-06-03T05:51:14.772Z,28.87
2018-06-03T05:53:43.052Z,27.63
2018-06-03T05:56:11.252Z,27.77
2018-06-03T05:58:39.432Z,23.90
2018-06-03T06:01:07.612Z,23.97
2018-06-03T06:03:36.700Z,20.73
2018-06-03T06:06:04.889Z,20.77
2018-06-03T06:08:33.153Z,20.40
2018-06-03T06:11:01.354Z,20.80
2018-06-03T06:13:29.567Z,20.60
2018-06-03T06:15:57.763Z,19.10
2018-06-03T06:18:25.898Z,20.10
2018-06-03T06:20:54.091Z,21.40
2018-06-03T06:23:22.279Z,19.00
2018-06-03T06:25:50.307Z,21.50
2018-06-03T06:28:18.520Z,20.50
2018-06-03T06:30:46.737Z,20.07
2018-06-03T06:33:14.937Z,22.63
2018-06-03T06:35:43.136Z,20.50
2018-06-03T06:38:11.068Z,20.60
2018-06-03T06:40:39.272Z,21.30
2018-06-03T06:43:07.444Z,22.00
2018-06-03T06:45:35.640Z,21.00
2018-06-03T06:48:03.593Z,20.70
2018-06-03T06:50:31.606Z,20.63
2018-06-03T06:52:59.774Z,19.80
2018-06-03T06:55:27.958Z,20.57
2018-06-03T06:57:56.163Z,20.50
2018-06-03T07:00:24.349Z,19.43
2018-06-03T07:02:52.524Z,20.10
2018-06-03T07:05:20.709Z,18.20
2018-06-03T07:07:48.888Z,18.13
2018-06-03T07:10:16.827Z,18.10
2018-06-03T07:12:45.016Z,18.07
2018-06-03T07:15:13.193Z,17.20
2018-06-03T07:17:41.364Z,16.30
2018-06-03T07:20:09.565Z,18.07
2018-06-03T07:22:37.572Z,16.33
2018-06-03T07:25:05.744Z,17.50
2018-06-03T07:27:33.920Z,20.03
2018-06-03T07:30:02.121Z,19.53
2018-06-03T07:32:30.330Z,20.47
2018-06-03T07:34:58.530Z,18.27
2018-06-03T07:37:26.737Z,16.50
2018-06-03T07:39:54.925Z,16.87
2018-06-03T07:42:23.105Z,17.53
2018-06-03T07:44:51.299Z,17.70
2018-06-03T07:47:19.505Z,17.13
2018-06-03T07:49:47.696Z,18.23
2018-06-03T07:52:15.872Z,15.10
2018-06-03T07:54:44.070Z,15.50
2018-06-03T07:57:12.281Z,16.50
2018-06-03T07:59:40.451Z,15.60
2018-06-03T08:02:08.652Z,14.63
2018-06-03T08:04:36.841Z,14.13
2018-06-03T08:07:05.012Z,12.93
2018-06-03T08:09:33.205Z,13.60
2018-06-03T08:12:01.375Z,12.80
2018-06-03T08:14:29.572Z,12.50
2018-06-03T08:16:57.556Z,11.80
2018-06-03T08:19:25.739Z,12.40
2018-06-03T08:21:53.937Z,11.60
2018-06-03T08:24:22.126Z,11.87
2018-06-03T08:26:50.312Z,13.20
2018-06-03T08:29:18.485Z,11.53
2018-06-03T08:31:46.672Z,10.40
2018-06-03T08:34:14.860Z,9.90
2018-06-03T08:36:42.833Z,9.60
2018-06-03T08:39:11.102Z,9.43
2018-06-03T08:41:39.261Z,7.97
2018-06-03T08:44:07.429Z,9.63
2018-06-03T08:46:35.597Z,9.83
2018-06-03T08:49:03.805Z,8.20
2018-06-03T08:51:32.008Z,8.50
2018-06-03T08:54:00.192Z,8.43
2018-06-03T08:56:28.408Z,8.60
2018-06-03T08:58:56.360Z,8.50
2018-06-03T09:01:24.616Z,10.10
2018-06-03T09:03:52.797Z,8.80
2018-06-03T09:06:20.976Z,8.50
2018-06-03T09:08:49.164Z,9.40
2018-06-03T09:11:17.355Z,9.37
2018-06-03T09:13:45.547Z,8.67
2018-06-03T09:16:13.700Z,8.70
2018-06-03T09:18:41.632Z,9.33
2018-06-03T09:21:09.815Z,8.67
2018-06-03T09:23:37.995Z,9.37
2018-06-03T09:26:06.245Z,9.57
2018-06-03T09:28:34.457Z,8.23
2018-06-03T09:31:06.686Z,10.73
2018-06-03T09:33:35.940Z,10.57
2018-06-03T09:36:04.144Z,9.13
2018-06-03T09:38:32.324Z,10.00
2018-06-03T09:41:00.542Z,10.37
2018-06-03T09:43:28.764Z,8.43
2018-06-03T09:45:56.928Z,9.97
2018-06-03T09:48:25.095Z,8.00
2018-06-03T09:50:53.268Z,8.37
2018-06-03T09:53:21.496Z,8.60
2018-06-03T09:55:49.677Z,10.00
2018-06-03T09:58:17.848Z,9.50
2018-06-03T10:00:46.075Z,9.50
2018-06-03T10:03:14.242Z,9.33
2018-06-03T10:05:42.412Z,9.83
2018-06-03T10:08:10.698Z,10.53
2018-06-03T10:10:38.924Z,9.67
2018-06-03T10:13:07.292Z,12.30
2018-06-03T10:15:35.497Z,10.43
2018-06-03T10:18:03.496Z,10.07
2018-06-03T10:20:31.672Z,9.60
2018-06-03T10:22:59.860Z,10.53
2018-06-03T10:25:28.079Z,10.17
2018-06-03T10:27:56.016Z,10.70
2018-06-03T10:30:24.220Z,9.90
2018-06-03T10:32:52.197Z,8.40
2018-06-03T10:35:20.156Z,9.70
2018-06-03T10:37:48.316Z,9.40
2018-06-03T10:40:16.483Z,9.20
2018-06-03T10:42:44.676Z,9.57
2018-06-03T10:45:12.611Z,9.50
2018-06-03T10:47:40.800Z,9.03
2018-06-03T10:50:08.980Z,8.60
2018-06-03T10:52:37.712Z,7.40
2018-06-03T10:55:05.956Z,9.30
2018-06-03T10:57:33.924Z,7.67
2018-06-03T11:00:01.884Z,6.57
2018-06-03T11:02:30.082Z,6.07
2018-06-03T11:04:58.319Z,6.53
2018-06-03T11:07:26.532Z,7.20
2018-06-03T11:09:54.708Z,7.20
2018-06-03T11:12:22.883Z,8.20
2018-06-03T11:14:51.088Z,7.27
2018-06-03T11:17:19.266Z,7.43
2018-06-03T11:19:47.531Z,7.83
2018-06-03T11:22:15.747Z,8.30
2018-06-03T11:24:43.940Z,7.53
2018-06-03T11:27:11.871Z,7.77
2018-06-03T11:29:40.081Z,7.67
2018-06-03T11:32:08.021Z,6.80
2018-06-03T11:34:36.224Z,6.73
2018-06-03T11:37:04.204Z,6.37
2018-06-03T11:39:32.395Z,7.80
2018-06-03T11:42:00.601Z,6.20
2018-06-03T11:44:28.752Z,5.80
2018-06-03T11:46:56.933Z,6.70
2018-06-03T11:49:25.196Z,7.53
2018-06-03T11:51:53.367Z,6.77
2018-06-03T11:54:21.558Z,7.53
2018-06-03T11:57:01.133Z,7.57
2018-06-03T11:59:46.932Z,7.40
2018-06-03T12:02:16.238Z,7.67
2018-06-03T12:04:44.424Z,6.90
2018-06-03T12:07:12.621Z,8.10
2018-06-03T12:09:40.824Z,7.00
2018-06-03T12:12:09.004Z,7.30
2018-06-03T12:14:37.192Z,6.83
2018-06-03T12:17:05.351Z,8.00
2018-06-03T12:19:33.507Z,5.90
2018-06-03T12:22:01.711Z,7.00
2018-06-03T12:24:29.912Z,7.20
2018-06-03T12:26:58.132Z,6.00
2018-06-03T12:29:26.321Z,6.57
2018-06-03T12:31:54.497Z,7.30
2018-06-03T12:34:22.653Z,6.17
2018-06-03T12:36:50.821Z,8.13
2018-06-03T12:39:19.000Z,8.23
2018-06-03T12:41:47.213Z,6.43
2018-06-03T12:44:15.360Z,7.83
2018-06-03T12:46:43.524Z,8.27
2018-06-03T12:49:11.688Z,7.60
2018-06-03T12:51:39.884Z,8.00
2018-06-03T12:54:08.064Z,13.30
2018-06-03T12:56:36.409Z,8.60
2018-06-03T12:59:04.605Z,7.97
2018-06-03T13:01:32.828Z,8.47
2018-06-03T13:04:01.016Z,6.90
2018-06-03T13:06:29.342Z,5.90
2018-06-03T13:08:57.496Z,4.90
2018-06-03T13:11:25.680Z,7.00
2018-06-03T13:13:53.864Z,7.23
2018-06-03T13:16:21.812Z,6.70
2018-06-03T13:18:50.023Z,5.57
2018-06-03T13:21:18.224Z,7.33
2018-06-03T13:23:46.400Z,7.60
2018-06-03T13:26:14.597Z,6.37
2018-06-03T13:28:42.789Z,6.33
2018-06-03T13:31:10.958Z,5.90
2018-06-03T13:33:39.156Z,5.30
2018-06-03T13:36:07.092Z,6.77
2018-06-03T13:38:35.284Z,7.73
2018-06-03T13:41:03.492Z,5.90
2018-06-03T13:43:31.669Z,6.97
2018-06-03T13:45:59.859Z,8.63
2018-06-03T13:48:28.061Z,9.47
2018-06-03T13:50:56.211Z,8.57
2018-06-03T13:53:24.409Z,8.83
2018-06-03T13:55:52.580Z,8.97
2018-06-03T13:58:20.740Z,8.87
2018-06-03T14:00:49.056Z,8.30
2018-06-03T14:03:17.340Z,8.63
2018-06-03T14:05:45.287Z,8.83
2018-06-03T14:08:13.481Z,7.90
2018-06-03T14:10:41.442Z,9.30
2018-06-03T14:13:09.604Z,7.80
2018-06-03T14:15:37.801Z,8.60
2018-06-03T14:18:05.765Z,8.13
2018-06-03T14:20:33.723Z,8.80
2018-06-03T14:23:01.944Z,8.37
2018-06-03T14:25:30.148Z,9.07
2018-06-03T14:27:58.326Z,7.80
2018-06-03T14:30:26.497Z,10.30
2018-06-03T14:32:54.665Z,9.80
2018-06-03T14:35:22.851Z,10.10
2018-06-03T14:37:51.016Z,10.00
2018-06-03T14:40:19.185Z,10.77
2018-06-03T14:42:47.376Z,12.00
2018-06-03T14:45:15.771Z,13.57
2018-06-03T14:47:44.025Z,11.63
2018-06-03T14:50:12.204Z,12.80
2018-06-03T14:52:40.411Z,12.80
2018-06-03T14:55:08.371Z,14.57
2018-06-03T14:57:36.299Z,13.70
2018-06-03T15:00:04.634Z,12.93
2018-06-03T15:02:32.824Z,12.97
2018-06-03T15:05:01.037Z,12.90
2018-06-03T15:07:29.220Z,14.47
2018-06-03T15:09:57.401Z,13.13
2018-06-03T15:12:25.608Z,13.53
2018-06-03T15:14:53.805Z,14.80
2018-06-03T15:17:21.841Z,15.80
2018-06-03T15:19:50.055Z,12.47
2018-06-03T15:22:18.179Z,10.63
2018-06-03T15:24:46.381Z,13.63
2018-06-03T15:27:14.585Z,28.10
2018-06-03T15:29:42.769Z,63.50
2018-06-03T15:32:10.960Z,48.47
2018-06-03T15:34:38.969Z,12.27
2018-06-03T15:37:07.166Z,10.90
2018-06-03T15:39:35.429Z,12.73
2018-06-03T15:42:03.628Z,11.10
2018-06-03T15:44:31.876Z,11.33
2018-06-03T15:47:00.096Z,11.10
2018-06-03T15:49:28.305Z,9.20
2018-06-03T15:51:56.239Z,10.60
2018-06-03T15:54:24.884Z,11.47
2018-06-03T15:56:53.080Z,11.40
2018-06-03T15:59:21.262Z,7.50
2018-06-03T16:01:49.440Z,10.27
2018-06-03T16:04:17.689Z,8.43
2018-06-03T16:06:45.840Z,7.53
2018-06-03T16:09:13.788Z,7.73
2018-06-03T16:11:41.975Z,9.90
2018-06-03T16:14:10.211Z,15.83
2018-06-03T16:16:38.416Z,11.57
2018-06-03T16:19:06.437Z,11.30
2018-06-03T16:21:34.627Z,8.00
2018-06-03T16:24:02.885Z,7.77
2018-06-03T16:26:31.089Z,8.47
2018-06-03T16:28:59.268Z,8.97
2018-06-03T16:31:27.648Z,8.87
2018-06-03T16:33:55.765Z,8.37
2018-06-03T16:36:23.958Z,8.30
2018-06-03T16:38:52.301Z,9.07
2018-06-03T16:41:20.486Z,7.93
2018-06-03T16:43:48.688Z,7.90
2018-06-03T16:46:17.548Z,7.43
2018-06-03T16:48:45.744Z,8.40
2018-06-03T16:51:13.904Z,7.43
2018-06-03T16:53:42.321Z,9.33
2018-06-03T16:56:10.695Z,9.87
2018-06-03T16:58:38.857Z,13.00
2018-06-03T17:01:07.034Z,10.87
2018-06-03T17:03:35.268Z,12.63
2018-06-03T17:06:03.434Z,12.63
2018-06-03T17:08:31.641Z,14.23
2018-06-03T17:10:59.814Z,16.17
2018-06-03T17:13:28.856Z,16.33
2018-06-03T17:15:56.811Z,14.33
2018-06-03T17:18:25.033Z,14.80
2018-06-03T17:20:53.203Z,14.60
2018-06-03T17:23:21.392Z,14.90
2018-06-03T17:25:49.584Z,13.87
2018-06-03T17:28:18.377Z,13.90
2018-06-03T17:30:46.580Z,13.87
2018-06-03T17:33:14.596Z,13.00
2018-06-03T17:35:42.793Z,12.37
2018-06-03T17:38:11.021Z,12.97
2018-06-03T17:40:39.207Z,11.87
2018-06-03T17:43:07.380Z,12.60
2018-06-03T17:45:35.558Z,11.00
2018-06-03T17:48:03.748Z,12.60
2018-06-03T17:50:31.928Z,11.53
2018-06-03T17:53:00.335Z,12.17
2018-06-03T17:55:28.301Z,10.93
2018-06-03T17:57:56.293Z,10.30
2018-06-03T18:00:24.508Z,10.20
2018-06-03T18:02:52.685Z,8.70
2018-06-03T18:05:20.874Z,11.27
2018-06-03T18:07:49.101Z,10.60
2018-06-03T18:10:17.332Z,9.90
2018-06-03T18:12:45.577Z,12.27
2018-06-03T18:15:13.773Z,11.60
2018-06-03T18:17:41.968Z,11.30
2018-06-03T18:20:09.960Z,12.70
2018-06-03T18:22:38.272Z,12.03
2018-06-03T18:25:06.463Z,12.10
2018-06-03T18:27:34.649Z,13.80
2018-06-03T18:30:02.576Z,14.20
2018-06-03T18:32:30.771Z,13.73
2018-06-03T18:34:58.956Z,13.30
2018-06-03T18:37:27.179Z,13.27
2018-06-03T18:39:56.069Z,13.30
2018-06-03T18:42:24.230Z,13.53
2018-06-03T18:44:52.421Z,14.17
2018-06-03T18:47:20.644Z,12.93
2018-06-03T18:49:48.825Z,13.30
2018-06-03T18:52:16.996Z,12.90
2018-06-03T18:54:45.008Z,15.00
2018-06-03T18:57:13.804Z,12.27
2018-06-03T18:59:42.578Z,12.80
2018-06-03T19:02:10.745Z,12.53
2018-06-03T19:04:38.949Z,13.03
2018-06-03T19:07:07.145Z,13.47
2018-06-03T19:09:35.328Z,13.43
2018-06-03T19:12:03.504Z,14.23
2018-06-03T19:14:31.706Z,15.23
2018-06-03T19:16:59.898Z,14.10
2018-06-03T19:19:28.119Z,13.13
2018-06-03T19:21:56.235Z,12.50
2018-06-03T19:24:24.429Z,12.17
2018-06-03T19:26:52.618Z,14.20
2018-06-03T19:29:20.816Z,12.40
2018-06-03T19:31:48.996Z,12.60
2018-06-03T19:34:17.497Z,13.10
2018-06-03T19:36:45.724Z,13.90
2018-06-03T19:39:13.900Z,12.70
2018-06-03T19:41:42.104Z,14.03
2018-06-03T19:44:10.299Z,13.73
2018-06-03T19:46:38.507Z,14.43
2018-06-03T19:49:06.810Z,12.63
2018-06-03T19:51:35.049Z,12.93
2018-06-03T19:54:03.326Z,13.07
2018-06-03T19:56:31.512Z,12.33
2018-06-03T19:58:59.733Z,12.80
2018-06-03T20:01:28.055Z,13.90
2018-06-03T20:03:56.332Z,11.57
2018-06-03T20:06:24.521Z,13.07
2018-06-03T20:08:52.723Z,11.87
2018-06-03T20:11:20.978Z,12.00
2018-06-03T20:13:49.212Z,11.70
2018-06-03T20:16:17.720Z,11.33
2018-06-03T20:18:45.948Z,12.00
2018-06-03T20:21:14.152Z,12.17
2018-06-03T20:23:42.479Z,12.33
2018-06-03T20:26:10.688Z,12.93
2018-06-03T20:28:38.892Z,13.20
2018-06-03T20:31:07.072Z,13.70
2018-06-03T20:33:36.011Z,14.10
2018-06-03T20:36:04.184Z,14.60
2018-06-03T20:38:32.321Z,14.90
2018-06-03T20:41:00.495Z,14.83
2018-06-03T20:43:28.697Z,15.57
2018-06-03T20:45:56.876Z,16.50
2018-06-03T20:48:25.104Z,17.27
2018-06-03T20:50:53.280Z,15.83
2018-06-03T20:53:21.468Z,18.80
2018-06-03T20:55:49.682Z,15.80
2018-06-03T20:58:18.516Z,18.17
2018-06-03T21:00:46.696Z,16.80
2018-06-03T21:03:14.902Z,19.83
2018-06-03T21:05:43.104Z,19.43
2018-06-03T21:08:11.297Z,21.20
2018-06-03T21:10:39.514Z,21.10
2018-06-03T21:13:07.704Z,21.00
2018-06-03T21:15:35.937Z,23.40
2018-06-03T21:18:04.124Z,21.03
2018-06-03T21:20:32.304Z,23.47
2018-06-03T21:23:00.498Z,24.73
2018-06-03T21:25:28.748Z,23.87
2018-06-03T21:27:56.948Z,23.40
2018-06-03T21:30:25.125Z,25.20
2018-06-03T21:32:53.100Z,27.20
2018-06-03T21:35:21.279Z,25.63
2018-06-03T21:37:49.480Z,26.37
2018-06-03T21:40:17.671Z,24.97
2018-06-03T21:42:45.858Z,28.20
2018-06-03T21:45:14.057Z,26.20
2018-06-03T21:47:42.246Z,27.23
2018-06-03T21:50:10.191Z,30.97
2018-06-03T21:52:38.424Z,27.17
2018-06-03T21:55:06.622Z,29.17
2018-06-03T21:57:34.825Z,30.80
2018-06-03T22:00:03.030Z,30.00
2018-06-03T22:02:31.212Z,32.77
2018-06-03T22:04:59.438Z,29.73
2018-06-03T22:07:27.616Z,33.20
2018-06-03T22:09:55.800Z,30.37
2018-06-03T22:12:23.977Z,33.57
2018-06-03T22:14:52.175Z,33.70
2018-06-03T22:17:20.376Z,38.87
2018-06-03T22:19:48.556Z,33.80
2018-06-03T22:22:17.380Z,36.23
2018-06-03T22:24:45.549Z,35.80
2018-06-03T22:27:13.763Z,37.47
2018-06-03T22:29:41.953Z,39.70
2018-06-03T22:32:10.136Z,39.77
2018-06-03T22:34:38.355Z,41.73
2018-06-03T22:37:06.545Z,38.00
2018-06-03T22:39:34.714Z,38.00
2018-06-03T22:42:02.910Z,36.70
2018-06-03T22:44:31.100Z,41.57
2018-06-03T22:46:59.293Z,39.73
2018-06-03T22:49:27.521Z,43.30
2018-06-03T22:51:55.719Z,41.00
2018-06-03T22:54:23.903Z,42.13
2018-06-03T22:57:57.449Z,42.40
2018-06-03T23:00:27.088Z,39.10
2018-06-03T23:03:00.716Z,42.50
2018-06-03T23:05:28.957Z,44.33
2018-06-03T23:07:57.137Z,41.67
2018-06-03T23:10:25.324Z,42.90
2018-06-03T23:12:53.519Z,45.90
2018-06-03T23:15:21.707Z,44.80
2018-06-03T23:17:49.891Z,47.30
2018-06-03T23:20:17.819Z,44.10
2018-06-03T23:22:46.022Z,44.57
2018-06-03T23:25:14.205Z,43.30
2018-06-03T23:27:42.444Z,43.47
2018-06-03T23:30:10.640Z,42.10
2018-06-03T23:32:38.907Z,42.40
2018-06-03T23:35:07.089Z,44.53
2018-06-03T23:37:35.284Z,45.10
2018-06-03T23:40:03.469Z,44.43
2018-06-03T23:42:31.660Z,41.67
2018-06-03T23:44:59.856Z,40.20
2018-06-03T23:47:28.056Z,44.27
2018-06-03T23:49:56.247Z,40.33
2018-06-03T23:52:24.470Z,41.30
2018-06-03T23:54:52.634Z,42.10
2018-06-03T23:57:20.824Z,44.27
2018-06-03T23:59:48.987Z,40.57
